Terminal Aerodrome Forecast
Issued by NWS Grand Rapids, MI

Home | Current Version | Previous Version | Text Only | Print | Product List | Glossary On
Versions: 1 2 3 4 5 6 7 8 9 10 11 12 13 14 15 16 17 18 19 20
000
FTUS43 KGRR 230800 AAE
TAFGRR
TAF AMD
KGRR 230843Z 2309/2406 35009KT P6SM BKN014
     FM231500 35012KT P6SM BKN040
     FM240000 01004KT P6SM FEW040=

USA.gov is the U.S. government's official web portal to all federal, state and local government web resources and services.